This is the latest recevied weather packets stored in our database for station/object N9EA. If no packets are shown the sender has not sent any weather packets the latest 10 day(s).
| Time | Temp. | Humidity | Pressure | Rain* | Wind** | Luminosity | Snow |
|---|---|---|---|---|---|---|---|
| 1777414510 | 17.78° C | 48% | 1012.6 hPa | 0 mm | - | 139 W/m² | - |
| 1777414209 | 17.78° C | 50% | 1012.5 hPa | 0 mm | - | 122 W/m² | - |
| 1777413904 | 17.78° C | 51% | 1012.4 hPa | 0 mm | - | 145 W/m² | - |
| 1777413600 | 17.22° C | 51% | 1012.4 hPa | 0 mm | - | 130 W/m² | - |
| 1777413296 | 17.78° C | 50% | 1012.3 hPa | 0 mm | - | 109 W/m² | - |
| 1777412992 | 17.78° C | 50% | 1012.4 hPa | 0 mm | - | 101 W/m² | - |
| 1777412691 | 18.33° C | 51% | 1012.4 hPa | 0 mm | - | 77 W/m² | - |
| 1777412390 | 18.33° C | 50% | 1012.6 hPa | 0 mm | - | 390 W/m² | - |
| 1777412084 | 18.89° C | 48% | 1012.7 hPa | 0 mm | - | 395 W/m² | - |
| 1777411780 | 18.89° C | 47% | 1012.9 hPa | 0 mm | - | 411 W/m² | - |
| 1777411479 | 18.89° C | 47% | 1013.1 hPa | 0 mm | - | 424 W/m² | - |
| 1777411178 | 18.33° C | 49% | 1012.7 hPa | 0 mm | - | 436 W/m² | - |
| 1777410874 | 17.78° C | 51% | 1012.9 hPa | 0 mm | - | 448 W/m² | - |
| 1777410573 | 17.78° C | 50% | 1013 hPa | 0 mm | - | 465 W/m² | - |
| 1777410272 | 18.33° C | 48% | 1013.1 hPa | 0 mm | - | 478 W/m² | - |
| 1777409968 | 17.78° C | 48% | 1013.1 hPa | 0 mm | - | 433 W/m² | - |
| 1777409662 | 17.78° C | 50% | 1013.3 hPa | 0 mm | - | 500 W/m² | - |
| 1777409359 | 18.33° C | 49% | 1013.2 hPa | 0 mm | - | 515 W/m² | - |
| 1777409055 | 18.33° C | 50% | 1013.5 hPa | 0 mm | - | 538 W/m² | - |
| 1777408752 | 17.78° C | 52% | 1013.6 hPa | 0 mm | - | 545 W/m² | - |
| 1777408448 | 18.33° C | 50% | 1013.7 hPa | 0 mm | - | 560 W/m² | - |
| 1777408142 | 18.33° C | 51% | 1013.6 hPa | 0 mm | - | 459 W/m² | - |
| 1777407837 | 17.78° C | 50% | 1013.7 hPa | 0 mm | - | 610 W/m² | - |
| 1777407535 | 16.67° C | 52% | 1013.4 hPa | 0 mm | - | 477 W/m² | - |
| 1777407235 | 17.78° C | 49% | 1013.5 hPa | 0 mm | - | 457 W/m² | - |
* Rain latest hour (hover to see other rain measurements)
** Current wind speed in m/s (hover to see current wind gust speed)